Time;durP1;ratioP1;P1;durP2;ratioP2;P2;SDS_P1;SDS_P2;PMS_P1;PMS_P2;Temp;Humidity;BMP_temperature;BMP_pressure;BME280_temperature;BME280_humidity;BME280_pressure;Samples;Min_cycle;Max_cycle;Signal;HPM_P1;HPM_P2
2021/10/15 00:01:10;;;;;;;16.82;14.83;;;;;;;15.95;52.36;102408.67;1730567;82;21464;-49
2021/10/15 00:03:36;;;;;;;15.90;14.15;;;;;;;15.94;52.19;102406.08;1730316;82;20976;-49
2021/10/15 00:06:03;;;;;;;16.60;14.70;;;;;;;15.91;51.85;102400.42;1728944;82;20953;-49
2021/10/15 00:08:29;;;;;;;17.65;14.60;;;;;;;15.87;51.80;102394.81;1726939;82;21054;-50
2021/10/15 00:10:57;;;;;;;17.75;14.73;;;;;;;15.84;51.92;102380.45;1727834;82;21035;-47
2021/10/15 00:13:23;;;;;;;16.45;14.55;;;;;;;15.84;52.05;102383.07;1727180;82;21030;-50
2021/10/15 00:15:50;;;;;;;15.23;13.72;;;;;;;15.83;51.92;102378.70;1726019;82;21043;-50
2021/10/15 00:18:16;;;;;;;17.27;14.10;;;;;;;15.81;51.64;102384.42;1728467;82;21063;-49
2021/10/15 00:20:44;;;;;;;17.02;14.28;;;;;;;15.80;51.43;102390.58;1729758;82;21031;-50
2021/10/15 00:23:10;;;;;;;16.55;14.80;;;;;;;15.80;51.34;102385.33;1730413;82;20995;-50
2021/10/15 00:25:37;;;;;;;15.63;13.95;;;;;;;15.82;51.30;102390.55;1730577;82;21027;-50
2021/10/15 00:28:04;;;;;;;14.87;13.43;;;;;;;15.84;51.28;102394.02;1729008;82;21019;-49
2021/10/15 00:30:31;;;;;;;19.07;14.90;;;;;;;15.85;51.21;102405.79;1715190;82;21530;-49
2021/10/15 00:32:57;;;;;;;16.93;15.15;;;;;;;15.84;51.45;102393.58;1729814;82;21038;-49
2021/10/15 00:35:24;;;;;;;17.00;15.10;;;;;;;15.85;51.76;102388.72;1730578;82;21094;-50
2021/10/15 00:37:51;;;;;;;17.05;15.25;;;;;;;15.82;51.88;102386.17;1730259;82;20979;-49
2021/10/15 00:40:18;;;;;;;18.10;16.05;;;;;;;15.81;51.86;102395.36;1727528;82;21027;-49
2021/10/15 00:42:45;;;;;;;19.02;15.45;;;;;;;15.79;51.94;102403.27;1720026;82;21019;-50
2021/10/15 00:45:11;;;;;;;17.85;15.78;;;;;;;15.78;52.04;102401.55;1726500;82;21514;-50
2021/10/15 00:47:38;;;;;;;17.87;15.98;;;;;;;15.78;52.21;102398.06;1730577;82;21739;-49
2021/10/15 00:50:06;;;;;;;19.02;17.05;;;;;;;15.80;52.30;102402.84;1733215;82;20992;-47
2021/10/15 00:52:33;;;;;;;20.62;16.97;;;;;;;15.78;52.30;102401.55;1735756;82;21054;-50
2021/10/15 00:55:00;;;;;;;20.80;17.57;;;;;;;15.79;52.39;102403.27;1735026;82;21074;-50
2021/10/15 00:57:27;;;;;;;18.27;16.32;;;;;;;15.80;52.41;102408.95;1735441;82;21065;-48
2021/10/15 00:59:53;;;;;;;19.10;16.82;;;;;;;15.81;52.35;102409.36;1734636;82;21022;-49
2021/10/15 01:02:20;;;;;;;18.52;16.07;;;;;;;15.82;52.39;102413.73;1717969;82;20995;-49
2021/10/15 01:04:47;;;;;;;19.02;15.90;;;;;;;15.85;52.50;102404.91;1736227;82;21411;-48
2021/10/15 01:07:14;;;;;;;18.73;15.63;;;;;;;15.86;52.52;102406.23;1725151;82;20995;-50
2021/10/15 01:09:41;;;;;;;17.67;15.38;;;;;;;15.87;52.25;102401.38;1717577;82;21038;-49
2021/10/15 01:12:09;;;;;;;17.37;15.53;;;;;;;15.88;52.01;102398.31;1737447;82;21082;-50
2021/10/15 01:14:38;;;;;;;21.62;16.15;;;;;;;15.88;51.99;102399.19;1733881;82;21491;-50
2021/10/15 01:17:05;;;;;;;17.07;15.25;;;;;;;15.89;51.92;102401.38;1742137;82;21023;-49
2021/10/15 01:20:05;;;;;;;18.45;16.45;;;;;;;15.89;52.06;102394.34;1735291;82;21070;-50
2021/10/15 01:23:17;;;;;;;17.80;15.90;;;;;;;15.90;52.05;102386.91;1736247;82;21037;-49
2021/10/15 01:26:04;;;;;;;16.07;14.47;;;;;;;15.90;52.03;102380.34;1737408;82;21795;-49
2021/10/15 01:28:31;;;;;;;17.62;15.03;;;;;;;15.89;52.01;102383.84;1733291;82;21022;-50
2021/10/15 01:30:59;;;;;;;18.00;15.95;;;;;;;15.85;52.07;102376.91;1739859;82;21566;-50
2021/10/15 01:33:25;;;;;;;16.93;15.10;;;;;;;15.84;52.27;102388.33;1737138;82;21538;-49
2021/10/15 01:35:52;;;;;;;18.62;15.48;;;;;;;15.82;52.47;102395.36;1735329;82;21055;-49
2021/10/15 01:38:19;;;;;;;18.98;16.82;;;;;;;15.82;52.55;102390.11;1735707;82;21018;-50
2021/10/15 01:40:46;;;;;;;19.17;17.12;;;;;;;15.79;52.51;102384.90;1735173;82;21554;-50
2021/10/15 01:43:25;;;;;;;18.48;16.37;;;;;;;15.77;52.51;102389.31;1736063;82;21557;-49
2021/10/15 01:45:52;;;;;;;18.82;16.82;;;;;;;15.77;52.53;102380.13;1732712;82;21526;-50
2021/10/15 01:48:19;;;;;;;18.87;16.95;;;;;;;15.75;52.78;102380.59;1735644;82;21065;-50
2021/10/15 01:50:46;;;;;;;24.10;17.82;;;;;;;15.75;52.97;102377.09;1731621;82;21086;-50
2021/10/15 01:53:12;;;;;;;18.92;16.93;;;;;;;15.75;52.97;102374.03;1730157;82;21082;-49
2021/10/15 01:55:40;;;;;;;18.52;16.55;;;;;;;15.76;53.12;102369.22;1730440;82;21535;-49
2021/10/15 01:58:06;;;;;;;19.85;16.67;;;;;;;15.76;53.18;102360.03;1718787;82;21070;-50
2021/10/15 02:00:33;;;;;;;19.20;17.20;;;;;;;15.79;53.34;102350.78;1728867;82;21538;-49
2021/10/15 02:03:00;;;;;;;19.52;17.48;;;;;;;15.82;53.40;102358.61;1730418;82;21058;-49
2021/10/15 02:05:27;;;;;;;18.95;16.87;;;;;;;15.83;53.31;102359.45;1730301;82;21094;-51
2021/10/15 02:07:54;;;;;;;19.32;17.12;;;;;;;15.83;53.24;102367.33;1727810;82;21471;-49
2021/10/15 02:10:21;;;;;;;20.12;17.67;;;;;;;15.84;53.15;102368.64;1728608;82;21051;-49
2021/10/15 02:12:50;;;;;;;20.68;17.37;;;;;;;15.83;53.13;102370.83;1731292;82;21006;-50
2021/10/15 02:15:19;;;;;;;23.00;17.70;;;;;;;15.84;53.30;102371.27;1730368;82;21027;-49
2021/10/15 02:17:47;;;;;;;19.07;17.07;;;;;;;15.82;53.41;102371.73;1730557;82;21034;-49
2021/10/15 02:20:14;;;;;;;20.12;17.25;;;;;;;15.84;53.51;102372.58;1728589;82;21519;-50
2021/10/15 02:22:43;;;;;;;21.57;17.62;;;;;;;15.85;53.59;102376.91;1727435;82;21472;-49
2021/10/15 02:25:11;;;;;;;19.30;17.20;;;;;;;15.87;53.69;102372.50;1726969;82;21487;-50
2021/10/15 02:27:37;;;;;;;18.67;16.80;;;;;;;15.90;53.75;102375.09;1727769;82;21054;-49
2021/10/15 02:30:05;;;;;;;22.73;18.17;;;;;;;15.90;53.73;102371.59;1727447;82;21027;-49
2021/10/15 02:32:33;;;;;;;20.05;17.95;;;;;;;15.88;53.84;102366.38;1728980;82;21026;-48
2021/10/15 02:34:59;;;;;;;19.50;17.60;;;;;;;15.85;53.97;102369.04;1730487;82;21042;-49
2021/10/15 02:37:26;;;;;;;19.32;16.07;;;;;;;15.84;54.14;102372.58;1726592;82;21511;-50
2021/10/15 02:39:53;;;;;;;21.23;17.42;;;;;;;15.83;54.25;102376.08;1729790;82;21037;-51
2021/10/15 02:42:19;;;;;;;22.07;17.15;;;;;;;15.81;54.21;102372.61;1730578;82;21011;-50
2021/10/15 02:44:46;;;;;;;20.32;18.15;;;;;;;15.80;54.26;102368.27;1729270;82;21035;-50
2021/10/15 02:47:13;;;;;;;20.80;18.17;;;;;;;15.78;54.36;102362.19;1727025;82;21507;-50
2021/10/15 02:49:40;;;;;;;19.90;17.30;;;;;;;15.77;54.40;102360.88;1728678;82;21062;-50
2021/10/15 02:52:07;;;;;;;19.57;17.57;;;;;;;15.75;54.33;102362.23;1734900;82;21055;-50
2021/10/15 02:54:33;;;;;;;19.45;17.45;;;;;;;15.74;54.39;102361.82;1730204;82;21062;-50
2021/10/15 02:57:00;;;;;;;19.80;17.67;;;;;;;15.71;54.52;102368.42;1738703;82;20994;-51
2021/10/15 02:59:28;;;;;;;20.75;18.55;;;;;;;15.71;54.63;102373.67;1738287;82;21066;-52
2021/10/15 03:01:54;;;;;;;21.02;17.62;;;;;;;15.71;54.66;102378.05;1736717;82;21034;-51
2021/10/15 03:04:20;;;;;;;21.73;19.12;;;;;;;15.71;54.67;102382.86;1735233;82;21043;-50
2021/10/15 03:06:47;;;;;;;20.27;18.15;;;;;;;15.73;54.64;102381.51;1735112;82;21023;-51
2021/10/15 03:09:14;;;;;;;21.25;19.05;;;;;;;15.73;54.70;102387.63;1735581;82;21069;-50
2021/10/15 03:11:41;;;;;;;20.15;17.95;;;;;;;15.74;54.77;102388.06;1734848;82;21050;-50
2021/10/15 03:14:08;;;;;;;20.77;17.42;;;;;;;15.78;54.72;102392.81;1738324;81;21495;-51
2021/10/15 03:16:34;;;;;;;19.48;17.17;;;;;;;15.80;54.75;102398.45;1738511;82;21050;-50
2021/10/15 03:19:01;;;;;;;22.55;18.15;;;;;;;15.80;54.79;102404.14;1735464;82;21007;-49
2021/10/15 03:21:27;;;;;;;18.90;16.93;;;;;;;15.79;54.68;102408.52;1737784;82;21053;-51
2021/10/15 03:23:55;;;;;;;20.90;17.15;;;;;;;15.77;54.70;102399.81;1724359;82;21023;-50
2021/10/15 03:26:22;;;;;;;19.92;17.82;;;;;;;15.75;54.70;102402.91;1734823;81;21490;-50
2021/10/15 03:28:51;;;;;;;20.68;18.40;;;;;;;15.74;54.77;102413.00;1736752;82;21026;-50
2021/10/15 03:31:18;;;;;;;20.92;18.15;;;;;;;15.75;54.84;102422.59;1735115;82;20975;-50
2021/10/15 03:33:45;;;;;;;21.40;18.17;;;;;;;15.75;54.85;102426.53;1735272;82;21018;-51
2021/10/15 03:36:11;;;;;;;19.00;17.05;;;;;;;15.77;54.89;102426.05;1735384;82;21506;-51
2021/10/15 03:38:38;;;;;;;19.65;17.45;;;;;;;15.79;54.90;102424.70;1735314;82;21038;-51
2021/10/15 03:41:04;;;;;;;20.50;17.82;;;;;;;15.79;54.86;102420.33;1738035;82;21606;-49
2021/10/15 03:43:31;;;;;;;19.23;17.23;;;;;;;15.78;54.87;102413.37;1738333;82;20999;-50
2021/10/15 03:45:57;;;;;;;18.55;16.52;;;;;;;15.76;55.00;102415.16;1736693;82;21019;-49
2021/10/15 03:48:24;;;;;;;20.00;17.23;;;;;;;15.74;55.22;102414.75;1736163;82;21068;-50
2021/10/15 03:50:53;;;;;;;19.65;17.27;;;;;;;15.73;55.42;102419.13;1729985;82;21027;-49
2021/10/15 03:53:19;;;;;;;19.17;17.17;;;;;;;15.74;55.48;102419.56;1735008;82;21562;-50
2021/10/15 03:55:46;;;;;;;18.17;16.27;;;;;;;15.79;55.47;102416.83;1730484;82;21007;-49
2021/10/15 03:58:12;;;;;;;18.42;16.42;;;;;;;15.82;55.38;102412.42;1730191;82;21484;-49
2021/10/15 04:00:39;;;;;;;18.45;16.55;;;;;;;15.83;55.35;102414.14;1727640;82;20987;-50
2021/10/15 04:03:06;;;;;;;18.98;16.95;;;;;;;15.86;55.37;102409.29;1729185;82;21002;-50
2021/10/15 04:05:33;;;;;;;19.15;17.02;;;;;;;15.87;55.39;102406.63;1722192;82;21554;-50
2021/10/15 04:08:00;;;;;;;20.43;17.80;;;;;;;15.88;55.41;102403.56;1730214;82;21015;-49
2021/10/15 04:10:26;;;;;;;19.07;17.07;;;;;;;15.86;55.51;102403.60;1729627;82;20995;-50
2021/10/15 04:12:53;;;;;;;20.92;16.52;;;;;;;15.86;55.55;102398.78;1727081;82;21015;-50
2021/10/15 04:15:20;;;;;;;18.82;16.73;;;;;;;15.86;55.69;102396.16;1727645;82;21535;-49
2021/10/15 04:17:46;;;;;;;18.80;16.12;;;;;;;15.86;55.81;102402.28;1726993;82;21007;-49
2021/10/15 04:20:13;;;;;;;17.07;15.38;;;;;;;15.86;55.88;102394.41;1727130;82;21078;-49
2021/10/15 04:22:39;;;;;;;17.57;15.50;;;;;;;15.88;55.88;102389.13;1729025;82;21015;-50
2021/10/15 04:25:08;;;;;;;14.38;12.00;;;;;;;15.91;55.83;102388.62;1730627;82;21007;-49
2021/10/15 04:27:36;;;;;;;9.58;8.58;;;;;;;15.94;55.56;102384.64;1730645;82;21019;-50
2021/10/15 04:30:04;;;;;;;7.15;6.10;;;;;;;15.95;54.97;102383.73;1728595;82;21023;-50
2021/10/15 04:32:32;;;;;;;7.47;5.28;;;;;;;15.97;54.46;102385.87;1728365;82;21066;-50
2021/10/15 04:34:59;;;;;;;6.15;5.55;;;;;;;15.99;54.26;102390.66;1729605;82;20983;-50
2021/10/15 04:37:25;;;;;;;6.72;4.67;;;;;;;16.02;54.20;102384.48;1730488;82;21510;-49
2021/10/15 04:39:51;;;;;;;4.92;4.35;;;;;;;16.05;53.70;102382.66;1730603;82;20996;-50
2021/10/15 04:42:19;;;;;;;5.78;4.33;;;;;;;16.08;53.34;102387.88;1728073;82;21058;-48
2021/10/15 04:44:47;;;;;;;6.58;4.60;;;;;;;16.12;53.27;102392.61;1727825;82;21471;-50
2021/10/15 04:47:13;;;;;;;5.45;4.90;;;;;;;16.15;53.09;102389.50;1727107;82;21077;-49
2021/10/15 04:49:40;;;;;;;5.75;4.65;;;;;;;16.20;52.85;102395.52;1720434;82;21047;-50
2021/10/15 04:52:07;;;;;;;4.60;3.98;;;;;;;16.24;52.46;102396.31;1733463;82;21503;-52
2021/10/15 04:54:34;;;;;;;5.83;4.30;;;;;;;16.25;52.16;102404.19;1735298;82;21065;-49
2021/10/15 04:57:01;;;;;;;5.80;4.85;;;;;;;16.26;52.09;102398.02;1735359;81;21062;-50
2021/10/15 04:59:28;;;;;;;5.50;4.85;;;;;;;16.28;51.82;102398.86;1735323;81;20987;-51
2021/10/15 05:01:54;;;;;;;4.67;4.28;;;;;;;16.32;51.60;102404.94;1738302;81;20959;-50
2021/10/15 05:04:21;;;;;;;5.42;4.25;;;;;;;16.36;51.55;102413.19;1738807;82;21030;-49
2021/10/15 05:06:47;;;;;;;6.03;4.67;;;;;;;16.37;51.21;102416.21;1737029;82;21050;-50
2021/10/15 05:11:54;;;;;;;6.10;4.72;;;;;;;16.44;51.52;102419.59;1653012;86;21037;-51
2021/10/15 05:14:23;;;;;;;5.47;4.33;;;;;;;16.48;51.67;102421.26;1650409;87;21079;-50
2021/10/15 05:16:52;;;;;;;5.65;4.42;;;;;;;16.49;51.67;102423.88;1653177;87;21338;-50
2021/10/15 05:19:19;;;;;;;5.72;4.50;;;;;;;16.49;51.55;102413.37;1653293;87;21062;-50
2021/10/15 05:21:47;;;;;;;4.92;4.42;;;;;;;16.51;51.59;102410.70;1652962;87;21027;-48
2021/10/15 05:24:13;;;;;;;5.90;4.28;;;;;;;16.54;51.54;102414.59;1653269;87;21491;-50
2021/10/15 05:26:40;;;;;;;4.95;4.50;;;;;;;16.55;51.69;102411.09;1652924;86;21063;-51
2021/10/15 05:29:06;;;;;;;5.33;4.25;;;;;;;16.57;51.79;102414.55;1653221;87;21028;-47
2021/10/15 05:31:33;;;;;;;5.33;4.40;;;;;;;16.59;51.66;102417.55;1653267;87;21111;-50
2021/10/15 05:33:59;;;;;;;8.25;5.03;;;;;;;16.62;51.61;102413.99;1653163;87;21012;-50
2021/10/15 05:36:26;;;;;;;5.15;4.65;;;;;;;16.65;51.54;102406.06;1653028;87;21005;-52
2021/10/15 05:38:54;;;;;;;5.60;4.30;;;;;;;16.68;51.59;102398.09;1652825;87;21032;-49
2021/10/15 05:41:21;;;;;;;4.70;4.08;;;;;;;16.71;51.47;102398.05;1653176;87;21015;-50
2021/10/15 05:43:47;;;;;;;6.60;4.37;;;;;;;16.74;50.94;102398.84;1653048;87;21043;-50
2021/10/15 05:46:14;;;;;;;7.35;4.37;;;;;;;16.77;51.04;102396.60;1653319;87;21036;-49
2021/10/15 05:48:40;;;;;;;5.30;4.30;;;;;;;16.80;50.94;102396.08;1678271;84;21087;-49
2021/10/15 05:51:07;;;;;;;5.42;4.58;;;;;;;16.82;51.01;102398.66;1735678;82;21022;-50
2021/10/15 05:53:34;;;;;;;5.55;4.45;;;;;;;16.85;50.91;102410.00;1735653;82;21093;-50
2021/10/15 05:58:53;;;;;;;11.10;4.22;;;;;;;16.88;50.79;102423.06;1731611;82;21082;-52
2021/10/15 06:01:25;;;;;;;5.70;4.55;;;;;;;16.90;50.90;102428.28;1735872;82;21034;-49
2021/10/15 06:14:32;;;;;;;7.20;4.47;;;;;;;16.99;50.81;102425.47;1734014;82;21058;-50
2021/10/15 06:17:06;;;;;;;5.90;4.87;;;;;;;17.02;51.00;102428.05;1731056;82;20975;-50
2021/10/15 06:19:28;;;;;;;7.05;5.03;;;;;;;17.03;50.88;102423.19;1723554;82;21587;-49
2021/10/15 06:21:55;;;;;;;5.03;4.50;;;;;;;17.04;50.82;102429.72;1734331;82;21565;-50
2021/10/15 06:24:22;;;;;;;9.23;4.90;;;;;;;17.08;50.82;102420.86;1739936;81;21482;-47
2021/10/15 06:26:49;;;;;;;5.10;4.60;;;;;;;17.10;50.54;102426.11;1738060;82;21022;-50
2021/10/15 06:29:15;;;;;;;6.20;4.70;;;;;;;17.11;50.12;102423.88;1735302;81;21066;-50
2021/10/15 06:31:42;;;;;;;4.50;4.10;;;;;;;17.13;50.35;102422.52;1725823;82;21513;-50
2021/10/15 06:34:09;;;;;;;5.78;4.37;;;;;;;17.15;50.42;102418.97;1737222;82;21030;-50
2021/10/15 06:36:35;;;;;;;4.87;4.28;;;;;;;17.17;50.29;102422.42;1737978;81;21041;-49
2021/10/15 06:39:02;;;;;;;8.38;4.35;;;;;;;17.21;50.22;102426.72;1732034;82;21003;-50
2021/10/15 06:41:29;;;;;;;5.12;4.60;;;;;;;17.24;50.22;102434.55;1735461;82;21038;-50
2021/10/15 06:43:56;;;;;;;7.08;4.78;;;;;;;17.27;50.18;102425.26;1735083;81;21058;-52
2021/10/15 06:46:23;;;;;;;5.05;4.20;;;;;;;17.27;49.87;102413.42;1737024;82;21034;-51
2021/10/15 06:48:49;;;;;;;5.62;4.25;;;;;;;17.27;49.42;102410.79;1738629;82;21507;-50
2021/10/15 06:51:15;;;;;;;13.22;4.53;;;;;;;17.27;49.51;102408.16;1734517;82;20991;-48
2021/10/15 06:53:42;;;;;;;5.65;4.87;;;;;;;17.28;49.58;102405.08;1738330;82;21553;-50
2021/10/15 06:56:09;;;;;;;5.05;4.30;;;;;;;17.28;49.30;102399.37;1735621;82;21007;-50
2021/10/15 06:58:35;;;;;;;4.90;4.40;;;;;;;17.29;49.21;102397.62;1735563;81;20978;-49
2021/10/15 07:01:03;;;;;;;6.28;4.50;;;;;;;17.29;49.17;102401.09;1735323;82;21039;-48
2021/10/15 07:03:29;;;;;;;4.92;4.42;;;;;;;17.30;49.29;102397.58;1735493;81;21033;-49
2021/10/15 07:05:56;;;;;;;5.92;4.58;;;;;;;17.32;49.29;102398.41;1735709;81;21534;-50
2021/10/15 07:08:24;;;;;;;5.25;4.28;;;;;;;17.35;49.42;102402.27;1738720;82;21022;-50
2021/10/15 07:10:52;;;;;;;4.75;4.28;;;;;;;17.38;49.50;102396.94;1738267;82;21046;-50
2021/10/15 07:13:18;;;;;;;5.95;4.22;;;;;;;17.42;49.53;102391.14;1734491;82;21014;-49
2021/10/15 07:15:46;;;;;;;4.97;4.40;;;;;;;17.45;49.44;102389.33;1729338;82;21070;-47
2021/10/15 07:18:14;;;;;;;4.53;4.12;;;;;;;17.47;48.99;102381.39;1735376;81;21070;-50
2021/10/15 07:20:42;;;;;;;5.65;4.05;;;;;;;17.48;48.59;102377.84;1736637;82;21042;-47
2021/10/15 07:23:12;;;;;;;4.87;4.37;;;;;;;17.48;48.17;102371.25;1738564;82;21035;-50
2021/10/15 07:25:39;;;;;;;6.40;4.25;;;;;;;17.49;47.66;102364.70;1658298;86;21134;-49
2021/10/15 07:28:07;;;;;;;4.78;4.10;;;;;;;17.51;47.84;102365.97;1659083;86;21038;-48
2021/10/15 07:30:33;;;;;;;4.37;3.90;;;;;;;17.50;48.30;102366.41;1659070;86;21514;-50
2021/10/15 07:33:00;;;;;;;4.72;4.22;;;;;;;17.51;48.53;102365.52;1659105;86;21015;-49
2021/10/15 07:35:26;;;;;;;6.45;3.90;;;;;;;17.53;48.28;102366.34;1658774;86;21103;-51
2021/10/15 07:37:53;;;;;;;8.88;4.22;;;;;;;17.57;48.21;102370.62;1659033;86;21511;-50
2021/10/15 07:40:21;;;;;;;4.42;4.03;;;;;;;17.58;48.26;102368.39;1658992;86;21526;-50
2021/10/15 07:42:48;;;;;;;5.90;3.67;;;;;;;17.60;48.02;102370.53;1659027;86;21030;-50
2021/10/15 07:45:14;;;;;;;7.42;4.10;;;;;;;17.61;47.56;102364.39;1659035;86;21574;-48
2021/10/15 07:47:42;;;;;;;5.50;3.87;;;;;;;17.62;47.45;102366.09;1659231;86;21519;-50
2021/10/15 07:50:09;;;;;;;4.95;4.42;;;;;;;17.64;47.19;102369.55;1659067;86;20991;-50
2021/10/15 07:52:41;;;;;;;4.72;4.20;;;;;;;17.64;47.29;102369.55;1665049;85;21062;-47
2021/10/15 07:55:09;;;;;;;4.95;4.45;;;;;;;17.66;47.70;102359.84;1665901;85;21130;-50
2021/10/15 07:57:36;;;;;;;4.83;4.05;;;;;;;17.66;47.71;102370.38;1666246;85;21038;-48
2021/10/15 08:00:05;;;;;;;6.05;4.78;;;;;;;17.69;47.51;102375.58;1666103;85;21018;-51
2021/10/15 08:02:34;;;;;;;5.25;4.17;;;;;;;17.71;47.72;102376.41;1662819;85;21096;-50
2021/10/15 08:05:01;;;;;;;6.12;3.83;;;;;;;17.75;47.78;102374.11;1666197;86;21133;-51
2021/10/15 08:07:27;;;;;;;5.62;4.33;;;;;;;17.81;47.75;102373.08;1665988;85;21543;-52
2021/10/15 08:09:54;;;;;;;7.15;4.17;;;;;;;17.86;47.51;102382.61;1666189;85;21098;-50
2021/10/15 08:12:23;;;;;;;6.22;4.25;;;;;;;17.95;47.65;102383.27;1666017;85;21070;-51
2021/10/15 08:14:49;;;;;;;5.50;4.72;;;;;;;17.99;47.60;102375.69;1666251;86;21058;-50
2021/10/15 08:17:17;;;;;;;4.50;3.85;;;;;;;18.02;47.08;102373.83;1666038;85;21129;-50
2021/10/15 08:19:44;;;;;;;5.47;4.10;;;;;;;18.05;47.03;102375.08;1666217;85;21083;-50
2021/10/15 08:22:11;;;;;;;5.37;3.98;;;;;;;18.10;47.08;102374.93;1695219;82;21486;-48
2021/10/15 08:24:38;;;;;;;4.05;3.65;;;;;;;18.13;47.46;102370.91;1740128;82;21049;-51
2021/10/15 08:27:05;;;;;;;6.55;4.53;;;;;;;18.18;47.46;102368.99;1736986;82;21030;-48
2021/10/15 08:29:37;;;;;;;6.08;3.60;;;;;;;18.21;46.79;102371.56;1740786;82;21006;-48
2021/10/15 08:32:00;;;;;;;4.72;4.15;;;;;;;18.25;46.94;102370.56;1736656;82;20994;-51
2021/10/15 08:34:26;;;;;;;5.47;4.30;;;;;;;18.29;46.61;102376.16;1743351;82;21518;-48
2021/10/15 08:36:53;;;;;;;6.30;3.95;;;;;;;18.36;46.60;102381.69;1744323;82;21041;-51
2021/10/15 08:39:23;;;;;;;6.67;4.42;;;;;;;18.42;46.57;102381.51;1740043;82;21042;-49
2021/10/15 08:41:49;;;;;;;4.83;4.42;;;;;;;18.47;45.96;102384.89;1732195;82;21062;-50
2021/10/15 08:44:15;;;;;;;5.37;3.98;;;;;;;18.52;45.74;102380.37;1742658;81;20990;-48
2021/10/15 08:46:42;;;;;;;6.33;4.80;;;;;;;18.56;45.91;102389.91;1743852;82;21089;-51
2021/10/15 08:49:09;;;;;;;9.73;4.53;;;;;;;18.58;45.31;102386.78;1743725;82;21030;-54
2021/10/15 08:51:39;;;;;;;8.75;5.37;;;;;;;18.60;45.22;102379.69;1739047;82;21042;-48
2021/10/15 08:54:06;;;;;;;7.22;4.58;;;;;;;18.60;45.37;102379.24;1737217;81;21014;-47
2021/10/15 08:56:34;;;;;;;7.50;4.50;;;;;;;18.61;45.45;102377.45;1737875;82;21042;-53
2021/10/15 08:59:05;;;;;;;6.10;4.22;;;;;;;18.62;45.84;102381.83;1738584;82;21019;-46
2021/10/15 09:01:44;;;;;;;7.12;4.87;;;;;;;18.66;45.70;102378.19;1738603;82;21447;-49
2021/10/15 09:04:15;;;;;;;8.65;4.12;;;;;;;18.71;45.94;102376.73;1658883;86;21063;-47
2021/10/15 09:06:40;;;;;;;4.72;4.15;;;;;;;18.78;45.69;102383.09;1655591;86;21078;-49
2021/10/15 09:09:07;;;;;;;6.22;4.10;;;;;;;18.85;45.78;102380.70;1658927;86;21555;-50
2021/10/15 09:11:46;;;;;;;5.60;4.03;;;;;;;18.92;45.75;102375.63;1658968;86;21066;-49
2021/10/15 09:14:18;;;;;;;6.10;4.33;;;;;;;18.98;46.04;102375.43;1659033;86;20995;-49
2021/10/15 09:17:08;;;;;;;4.70;4.17;;;;;;;19.00;45.92;102370.97;1659115;86;21151;-49
2021/10/15 09:19:47;;;;;;;4.47;3.67;;;;;;;18.98;45.82;102378.07;1658969;86;21030;-48
2021/10/15 09:22:25;;;;;;;7.05;3.90;;;;;;;18.99;45.37;102373.66;1626814;87;21175;-49
2021/10/15 09:25:07;;;;;;;7.20;4.65;;;;;;;18.96;45.50;102365.86;1623295;87;21063;-48
2021/10/15 09:27:43;;;;;;;6.58;4.42;;;;;;;18.94;45.70;102372.48;1623821;87;21067;-47
2021/10/15 09:30:21;;;;;;;6.62;4.20;;;;;;;18.93;45.84;102369.45;1616323;87;21075;-49
2021/10/15 09:32:53;;;;;;;5.30;4.25;;;;;;;18.92;45.75;102372.98;1629429;87;21079;-49
2021/10/15 09:35:23;;;;;;;4.95;4.10;;;;;;;18.93;45.32;102378.69;1629333;87;21068;-49
2021/10/15 09:37:55;;;;;;;7.42;4.92;;;;;;;18.94;45.55;102379.08;1598443;89;21060;-49
2021/10/15 09:40:23;;;;;;;4.70;4.05;;;;;;;18.95;45.79;102377.31;1601135;89;21602;-47
2021/10/15 09:42:54;;;;;;;9.35;5.10;;;;;;;18.95;45.46;102370.27;1599349;89;21027;-47
2021/10/15 09:45:23;;;;;;;7.03;4.20;;;;;;;18.96;45.62;102371.98;1515102;94;21118;-50
2021/10/15 09:47:52;;;;;;;8.08;4.50;;;;;;;19.00;45.78;102364.38;1515277;94;21032;-50
2021/10/15 09:50:27;;;;;;;6.67;4.17;;;;;;;19.01;45.68;102359.52;1515547;94;21096;-49
2021/10/15 09:52:58;;;;;;;6.28;3.85;;;;;;;19.06;45.37;102359.38;1526100;92;21090;-50
2021/10/15 09:55:31;;;;;;;5.60;4.22;;;;;;;19.09;45.55;102364.55;1528590;93;21581;-47
2021/10/15 09:58:19;;;;;;;9.05;6.12;;;;;;;19.18;45.56;102369.09;1529469;93;21609;-49
2021/10/15 10:00:50;;;;;;;7.47;5.08;;;;;;;19.22;45.15;102368.09;1526349;93;21112;-50
2021/10/15 10:03:19;;;;;;;6.80;4.90;;;;;;;19.25;45.08;102369.30;1487684;96;21067;-48
2021/10/15 10:05:47;;;;;;;6.03;4.65;;;;;;;19.28;45.15;102379.77;1488680;96;21634;-48
2021/10/15 10:08:15;;;;;;;6.80;4.78;;;;;;;19.29;45.18;102378.84;1489047;96;21055;-50
2021/10/15 10:10:42;;;;;;;7.42;5.42;;;;;;;19.29;44.75;102378.84;1487494;96;21652;-47
2021/10/15 10:13:12;;;;;;;7.70;4.83;;;;;;;19.29;45.06;102375.33;1487065;96;21091;-50
2021/10/15 10:15:42;;;;;;;5.08;4.55;;;;;;;19.28;45.32;102374.48;1488201;96;21108;-50
2021/10/15 10:18:26;;;;;;;6.75;5.17;;;;;;;19.29;45.44;102361.68;1503280;95;21133;-50
2021/10/15 10:21:03;;;;;;;8.00;5.50;;;;;;;19.28;45.79;102363.05;1480386;97;21112;-47
2021/10/15 10:23:40;;;;;;;7.87;5.37;;;;;;;19.27;46.07;102360.87;1487748;96;21591;-50
2021/10/15 10:26:10;;;;;;;9.25;5.03;;;;;;;19.26;45.94;102361.80;1469927;96;21567;-50
2021/10/15 10:28:37;;;;;;;11.75;6.15;;;;;;;19.23;45.53;102364.52;1487746;96;21112;-50
2021/10/15 10:31:06;;;;;;;6.42;5.60;;;;;;;19.20;45.53;102367.27;1487781;96;21624;-49
2021/10/15 10:33:57;;;;;;;10.28;6.20;;;;;;;19.18;45.94;102363.82;1482199;94;21118;-52
2021/10/15 10:36:24;;;;;;;7.00;5.00;;;;;;;19.14;45.93;102357.36;1522035;94;21076;-50
2021/10/15 10:38:50;;;;;;;6.28;5.17;;;;;;;19.09;46.25;102352.23;1522045;94;21560;-49
2021/10/15 10:41:22;;;;;;;10.63;5.58;;;;;;;19.07;46.07;102351.41;1522330;91;21108;-48
2021/10/15 10:43:54;;;;;;;7.28;5.42;;;;;;;19.04;46.13;102356.77;1530011;94;21105;-49
2021/10/15 10:46:25;;;;;;;6.97;5.67;;;;;;;19.00;45.94;102365.69;1530427;94;21085;-47
2021/10/15 10:48:58;;;;;;;7.92;5.60;;;;;;;18.99;45.97;102374.53;1532452;94;21090;-48
2021/10/15 10:51:31;;;;;;;8.65;5.70;;;;;;;18.95;46.12;102375.55;1532391;93;21045;-51
2021/10/15 10:54:26;;;;;;;8.93;6.08;;;;;;;18.94;46.33;102373.80;1523341;92;21624;-50
2021/10/15 10:56:53;;;;;;;8.70;5.97;;;;;;;18.92;46.47;102372.98;1557860;92;21128;-49
2021/10/15 10:59:30;;;;;;;10.72;5.78;;;;;;;18.88;46.16;102377.95;1566699;89;21097;-49
2021/10/15 11:02:16;;;;;;;8.45;5.90;;;;;;;18.85;46.31;102379.37;1626208;88;21107;-49
2021/10/15 11:04:53;;;;;;;7.25;5.45;;;;;;;18.80;46.13;102378.63;1622414;88;21015;-48
2021/10/15 11:07:26;;;;;;;10.68;6.20;;;;;;;18.75;46.31;102377.06;1622141;88;21086;-51
2021/10/15 11:10:02;;;;;;;6.08;5.45;;;;;;;18.72;46.42;102372.73;1620525;88;21534;-51
2021/10/15 11:12:35;;;;;;;7.50;5.53;;;;;;;18.68;46.67;102357.91;1626157;88;21023;-49
2021/10/15 11:15:12;;;;;;;8.18;6.00;;;;;;;18.62;46.80;102352.82;1626161;88;21066;-49
2021/10/15 11:17:47;;;;;;;6.45;5.47;;;;;;;18.57;46.93;102345.48;1649400;85;21034;-53
2021/10/15 11:20:29;;;;;;;8.75;5.80;;;;;;;18.54;47.15;102335.05;1664345;86;21028;-52
2021/10/15 11:23:07;;;;;;;6.65;5.33;;;;;;;18.52;47.22;102326.33;1661644;86;21062;-49
2021/10/15 11:25:45;;;;;;;7.08;5.25;;;;;;;18.49;47.15;102318.49;1661695;86;21463;-50
2021/10/15 11:28:15;;;;;;;6.58;5.90;;;;;;;18.46;47.32;102312.88;1661733;86;21079;-51
2021/10/15 11:30:48;;;;;;;7.87;5.70;;;;;;;18.44;47.30;102312.52;1661660;86;21007;-51
2021/10/15 11:33:17;;;;;;;7.17;6.40;;;;;;;18.43;47.71;102314.69;1655881;86;21015;-51
2021/10/15 11:35:45;;;;;;;6.37;5.78;;;;;;;18.43;48.05;102309.00;1661642;86;21011;-51
2021/10/15 11:38:21;;;;;;;6.45;5.70;;;;;;;18.44;48.11;102308.56;1661342;86;21082;-53
2021/10/15 11:40:58;;;;;;;7.95;6.00;;;;;;;18.44;48.49;102311.20;1659703;86;21058;-49
2021/10/15 11:43:31;;;;;;;6.75;6.08;;;;;;;18.43;48.25;102316.01;1617478;88;21519;-49